TF336 / SE-MKB 7700 Squawk Report (8th of December, 2019)

Aircraft AT76 Reg No. SE-MKB Age 4 years old
Model ATR 72 Turboprop engines 2 First flight 14-12-15
Registered 30-12-15 Rollout 12-15 Delivered 30-12-15
Construction No. 1308 Line No. N/A Series 600
ADSHEX 4AB562 Airline name Braathens Regional Airways Owner ATR 72 MSN 1308 Ltd.
Airfield based Stockholm-Bromma~Stockholm~SE First tracked 2017-07-13 06:07:00

Flight history for SE-MKB

Route Flight No Date Playback
Bromma (BMA) - Växjö Småland (VXO) TF764 2020-01-17 20:29:00
Ronneby (RNB) - Bromma (BMA) TF619 2020-01-17 19:48:00
Bromma (BMA) - Ronneby (RNB) TF614 2020-01-17 18:34:00
Halmstad (HAD) - Bromma (BMA) TF709 2020-01-17 16:51:00
Bromma (BMA) - Halmstad (HAD) TF706 2020-01-17 15:07:00
Östersund Airport (OSD) - Bromma (BMA) TF367 2020-01-17 12:45:00
Bromma (BMA) - Östersund Airport (OSD) TF364 2020-01-17 11:43:00
???? N/A 2020-01-17 08:45:00
Bromma (BMA) - Landvetter (GOT) TF2 2020-01-17 07:51:00
Visby (VBY) - Bromma (BMA) TF425 2020-01-16 16:22:00
Bromma (BMA) - Visby (VBY) TF418 2020-01-16 15:11:00
???? N/A 2020-01-16 14:47:00
???? N/A 2020-01-16 12:40:00
Ronneby (RNB) - Bromma (BMA) TF605 2020-01-16 11:56:00
Bromma (BMA) - Ronneby (RNB) TF602 2020-01-16 09:05:00
Ronneby (RNB) - Bromma (BMA) TF601 2020-01-16 06:42:00
Bromma (BMA) - Ronneby (RNB) TF620 2020-01-16 05:58:00
Växjö Småland (VXO) - Bromma (BMA) TF763 2020-01-15 20:02:00
Bromma (BMA) - Växjö Småland (VXO) TF760 2020-01-15 17:45:00
Ronneby (RNB) - Bromma (BMA) TF613 2020-01-15 16:00:00
Time Lat Lon Altitude Heading Speed Vertical Rate
2019-12-08 16:06:04 GMT 58.795303 17.013391 2,150 262 140 -960
2019-12-08 16:05:58 GMT 58.795849 17.020752 2,225 263 140 -704
2019-12-08 16:05:45 GMT 58.796406 17.037415 2,350 268 147 -384
2019-12-08 16:05:39 GMT 58.796734 17.046478 2,425 264 145 -704
2019-12-08 16:05:29 GMT 58.797546 17.058046 2,525 262 151 -384
2019-12-08 16:05:17 GMT 58.798737 17.073669 2,700 261 154 -1024
2019-12-08 16:05:09 GMT 58.799946 17.085571 2,850 259 158 -896
2019-12-08 16:04:58 GMT 58.801529 17.100586 2,925 259 160 0
2019-12-08 16:04:48 GMT 58.802925 17.113586 2,925 259 160 -64
2019-12-08 16:04:38 GMT 58.804871 17.128128 2,950 255 162 192
2019-12-08 16:04:28 GMT 58.806473 17.142393 2,875 264 169 448
2019-12-08 16:04:18 GMT 58.807114 17.157898 2,800 266 173 384
2019-12-08 16:04:07 GMT 58.807755 17.174732 2,775 266 171 64
2019-12-08 16:03:57 GMT 58.808510 17.188660 2,800 264 165 -448
2019-12-08 16:03:48 GMT 58.809673 17.203583 2,875 262 154 -256
2019-12-08 16:03:37 GMT 58.810822 17.217260 2,850 261 163 448
2019-12-08 16:03:26 GMT 58.812141 17.232971 2,775 261 178 256
2019-12-08 16:03:17 GMT 58.813660 17.248358 2,825 260 184 -704
2019-12-08 16:03:10 GMT 58.814934 17.261261 2,925 260 182 -768
2019-12-08 16:03:06 GMT 58.815308 17.265198 2,975 261 178 -1088
2019-12-08 16:02:57 GMT 58.816425 17.280212 3,150 263 170 -1216
2019-12-08 16:02:51 GMT 58.816956 17.288849 3,250 265 168 -832
2019-12-08 16:02:46 GMT 58.817215 17.295593 3,300 266 171 -640
2019-12-08 16:02:35 GMT 58.817497 17.312622 3,375 272 179 -320
2019-12-08 16:02:26 GMT 58.816750 17.328094 3,475 277 185 -960
2019-12-08 16:02:18 GMT 58.815960 17.341370 3,600 277 185 -1024
2019-12-08 16:02:15 GMT 58.815720 17.345995 3,650 277 185 -1024
2019-12-08 16:02:09 GMT 58.815216 17.354855 3,725 277 183 -896
2019-12-08 16:02:05 GMT 58.814850 17.361322 3,775 277 181 -1088
2019-12-08 16:01:56 GMT 58.813797 17.377802 3,950 278 175 -960
2019-12-08 16:01:48 GMT 58.812981 17.390167 4,050 278 176 -704
2019-12-08 16:01:45 GMT 58.812840 17.393280 4,075 276 176 -704
2019-12-08 16:01:34 GMT 58.812328 17.409943 4,150 271 180 -384
2019-12-08 16:01:28 GMT 58.812378 17.420328 4,225 269 182 -640
2019-12-08 16:01:24 GMT 58.812469 17.426001 4,275 268 181 -576
2019-12-08 16:01:17 GMT 58.812885 17.438599 4,325 264 182 -64
2019-12-08 16:01:14 GMT 58.813122 17.442627 4,325 264 181 -64
2019-12-08 16:01:08 GMT 58.814190 17.458649 4,350 263 183 -64
2019-12-08 16:01:05 GMT 58.814190 17.458649 4,325 263 184 -64
2019-12-08 16:00:58 GMT 58.814934 17.469910 4,350 264 186 -64
2019-12-08 16:00:54 GMT 58.815170 17.475794 4,325 269 188 64
2019-12-08 16:00:48 GMT 58.814987 17.485451 4,375 279 192 -704
2019-12-08 16:00:44 GMT 58.814529 17.492538 4,375 279 192 -704
2019-12-08 16:00:37 GMT 58.813583 17.503601 4,450 280 192 -128
2019-12-08 16:00:34 GMT 58.813026 17.509827 4,450 280 192 -128
2019-12-08 16:00:27 GMT 58.812057 17.520447 4,475 280 193 -320
2019-12-08 16:00:23 GMT 58.811417 17.527802 4,500 280 194 -256
2019-12-08 16:00:18 GMT 58.810093 17.544434 4,650 280 191 -768
2019-12-08 16:00:13 GMT 58.810093 17.544434 4,550 279 194 -640
2019-12-08 16:00:07 GMT 58.809162 17.555420 4,625 280 191 -896
2019-12-08 16:00:04 GMT 58.808670 17.561733 4,675 279 190 -640
2019-12-08 15:59:56 GMT 58.808029 17.572809 4,725 274 188 -320
2019-12-08 15:59:53 GMT 58.807907 17.578857 4,750 271 187 -320
2019-12-08 15:59:46 GMT 58.807938 17.589466 4,800 270 186 -384
2019-12-08 15:59:43 GMT 58.807983 17.595402 4,825 270 186 -384
2019-12-08 15:59:37 GMT 58.807983 17.606478 4,850 271 187 -512
2019-12-08 15:59:33 GMT 58.807907 17.612366 4,900 274 188 -448
2019-12-08 15:59:26 GMT 58.807251 17.623400 5,025 296 199 -384
2019-12-08 15:59:22 GMT 58.806557 17.629852 4,950 285 195 -384
2019-12-08 15:59:19 GMT 58.805603 17.635981 4,975 289 197 -448
2019-12-08 15:59:16 GMT 58.804688 17.640764 5,000 294 198 -448
2019-12-08 15:59:12 GMT 58.803314 17.646435 5,025 297 200 -384
2019-12-08 15:59:08 GMT 58.801250 17.653290 5,050 305 203 -448
2019-12-08 15:59:05 GMT 58.799946 17.656952 5,075 309 207 -640
2019-12-08 15:59:02 GMT 58.798141 17.661497 5,100 310 208 -640
2019-12-08 15:58:56 GMT 58.793335 17.671234 5,200 318 216 -896
2019-12-08 15:58:52 GMT 58.791008 17.674988 5,250 321 219 -960
2019-12-08 15:58:45 GMT 58.785233 17.683647 5,350 324 223 -960
2019-12-08 15:58:41 GMT 58.782394 17.687634 5,400 324 224 -896
2019-12-08 15:58:34 GMT 58.776581 17.696051 5,525 324 226 -832
2019-12-08 15:58:30 GMT 58.773178 17.700897 5,575 324 226 -832
2019-12-08 15:58:24 GMT 58.767639 17.707764 5,675 331 232 -960
2019-12-08 15:58:21 GMT 58.764984 17.710510 5,725 335 235 -1152
2019-12-08 15:58:18 GMT 58.761017 17.713772 5,800 341 239 -1152
2019-12-08 15:58:15 GMT 58.757675 17.715820 5,875 347 243 -1024
2019-12-08 15:58:12 GMT 58.754372 17.717285 5,900 349 244 -960
2019-12-08 15:58:04 GMT 58.745956 17.719088 6,000 359 252 -640
2019-12-08 15:58:01 GMT 58.742432 17.718998 6,050 2 255 -640
2019-12-08 15:57:51 GMT 58.730209 17.715099 6,200 18 267 -1216
2019-12-08 15:57:41 GMT 58.718948 17.705442 6,425 29 273 -1088
2019-12-08 15:57:31 GMT 58.708511 17.691710 6,600 40 276 -1536
2019-12-08 15:57:23 GMT 58.701534 17.678284 6,800 51 277 -1280
2019-12-08 15:57:20 GMT 58.699402 17.672838 6,850 55 277 -1216
2019-12-08 15:57:11 GMT 58.693062 17.651276 7,050 66 281 -1536
2019-12-08 15:57:03 GMT 58.689606 17.634031 7,250 72 280 -1856
2019-12-08 15:57:00 GMT 58.688545 17.627197 7,325 74 280 -1664
2019-12-08 15:56:56 GMT 58.687057 17.614838 7,450 79 281 -1216
2019-12-08 15:56:53 GMT 58.686077 17.602203 7,525 84 284 -896
2019-12-08 15:56:45 GMT 58.685566 17.588013 7,625 91 288 -1920
2019-12-08 15:56:42 GMT 58.685532 17.582998 7,675 91 288 -1920
2019-12-08 15:56:39 GMT 58.685669 17.575378 7,775 93 287 -2176
2019-12-08 15:56:29 GMT 58.687820 17.549242 8,100 101 284 -2304
2019-12-08 15:56:20 GMT 58.690796 17.526560 8,500 104 287 -2304
2019-12-08 15:56:09 GMT 58.694271 17.501129 8,925 105 283 -2368
2019-12-08 15:56:02 GMT 58.697018 17.481445 9,250 105 282 -2176
2019-12-08 15:55:59 GMT 58.697857 17.475769 9,325 105 282 -2048
2019-12-08 15:55:49 GMT 58.701233 17.451515 9,625 104 285 -1728
2019-12-08 15:55:39 GMT 58.704468 17.426880 9,900 103 287 -1472
2019-12-08 15:55:28 GMT 58.707642 17.400749 10,200 102 287 -1728
2019-12-08 15:55:19 GMT 58.710518 17.376343 10,425 102 286 -1664
2019-12-08 15:55:08 GMT 58.713406 17.350616 10,725 101 287 -1344
2019-12-08 15:54:58 GMT 58.716156 17.325439 10,975 101 289 -1472
2019-12-08 15:54:47 GMT 58.719040 17.299213 12,275 101 289 -1536
2019-12-08 15:54:37 GMT 58.721970 17.272614 12,275 101 289 -1536
2019-12-08 15:54:27 GMT 58.724854 17.247028 11,725 102 286 -1728
2019-12-08 15:54:17 GMT 58.727928 17.224091 11,950 105 279 -1728
2019-12-08 15:54:12 GMT 58.730164 17.210999 12,125 109 276 -1600
2019-12-08 15:54:07 GMT 58.732269 17.200426 12,275 112 273 -1280
2019-12-08 15:53:59 GMT 58.737030 17.180758 12,425 119 268 -1152
2019-12-08 15:53:50 GMT 58.743347 17.162771 12,525 129 262 -896
2019-12-08 15:53:46 GMT 58.745087 17.158873 12,825 145 253 -640
2019-12-08 15:53:36 GMT 58.764893 17.131256 12,825 145 253 -640
2019-12-08 15:53:27 GMT 58.764893 17.131256 12,850 156 245 -512
2019-12-08 15:53:21 GMT 58.770401 17.127598 12,875 165 237 64
2019-12-08 15:53:15 GMT 58.777222 17.125294 12,850 173 233 256
2019-12-08 15:53:06 GMT 58.785370 17.125294 12,850 185 227 -192
2019-12-08 15:53:01 GMT 58.792007 17.127863 12,925 207 214 -128
2019-12-08 15:52:55 GMT 58.795757 17.130798 12,925 215 210 192
2019-12-08 15:52:47 GMT 58.803112 17.139679 12,900 221 209 0
2019-12-08 15:52:44 GMT 58.804642 17.142126 12,900 225 207 -128
2019-12-08 15:52:39 GMT 58.808670 17.149923 12,925 229 204 -320
2019-12-08 15:52:36 GMT 58.810558 17.154144 12,950 232 202 -448
2019-12-08 15:52:33 GMT 58.811783 17.157188 12,950 232 202 -448
2019-12-08 15:52:30 GMT 58.813725 17.162018 13,000 233 199 -64
2019-12-08 15:52:26 GMT 58.816269 17.168530 13,000 233 198 64
2019-12-08 15:52:19 GMT 58.819885 17.177656 13,000 233 196 -128
2019-12-08 15:52:16 GMT 58.821453 17.181610 13,000 233 195 0
2019-12-08 15:52:12 GMT 58.823685 17.187313 13,000 234 196 0
2019-12-08 15:52:08 GMT 58.825829 17.192780 12,975 234 196 0
2019-12-08 15:52:04 GMT 58.828033 17.198477 12,975 234 196 -128
2019-12-08 15:51:57 GMT 58.831558 17.207779 13,000 235 195 -64
2019-12-08 15:51:53 GMT 58.833847 17.213982 13,000 235 195 -64
2019-12-08 15:51:49 GMT 58.836861 17.222168 13,000 235 195 -256
2019-12-08 15:51:46 GMT 58.837830 17.224878 13,000 235 195 -192
2019-12-08 15:51:42 GMT 58.839615 17.229664 13,000 236 195 -64
2019-12-08 15:51:39 GMT 58.841217 17.234005 13,000 235 195 0
2019-12-08 15:51:33 GMT 58.844261 17.242401 13,000 235 195 -64
2019-12-08 15:51:30 GMT 58.846218 17.247803 13,025 236 195 -192
2019-12-08 15:51:24 GMT 58.849411 17.256500 13,100 235 194 -512
2019-12-08 15:51:19 GMT 58.851524 17.262363 13,100 235 193 -448
2019-12-08 15:51:13 GMT 58.854832 17.271360 13,150 235 190 -512
2019-12-08 15:51:08 GMT 58.856880 17.277042 13,175 235 189 -512
2019-12-08 15:51:05 GMT 58.858974 17.282724 13,225 235 187 -512
2019-12-08 15:51:02 GMT 58.859997 17.285473 13,225 235 185 -512
2019-12-08 15:50:59 GMT 58.861633 17.290009 13,250 235 185 -576
2019-12-08 15:50:54 GMT 58.864094 17.296837 13,300 235 182 -512
2019-12-08 15:50:51 GMT 58.865353 17.300152 13,325 235 182 -448
2019-12-08 15:50:48 GMT 58.867493 17.306122 13,350 235 180 -448
2019-12-08 15:50:44 GMT 58.870148 17.313263 13,400 235 177 -448
2019-12-08 15:50:37 GMT 58.871964 17.318336 13,425 235 175 -512
2019-12-08 15:50:34 GMT 58.873775 17.323261 13,475 235 172 -512
2019-12-08 15:50:31 GMT 58.874725 17.325897 13,475 235 171 -448
2019-12-08 15:50:26 GMT 58.877083 17.332354 13,500 235 170 -320
2019-12-08 15:50:23 GMT 58.878891 17.337341 13,525 235 167 0
2019-12-08 15:50:18 GMT 58.880859 17.342743 13,525 235 166 64
2019-12-08 15:50:13 GMT 58.882874 17.348328 13,525 235 166 64
2019-12-08 15:50:10 GMT 58.886299 17.357641 13,525 235 163 0
2019-12-08 15:50:03 GMT 58.887417 17.360765 13,525 235 163 0
2019-12-08 15:50:00 GMT 58.888535 17.363892 13,525 236 163 -64
2019-12-08 15:49:56 GMT 58.890259 17.368628 13,525 235 160 -64
2019-12-08 15:49:53 GMT 58.891617 17.372406 13,525 236 158 64
2019-12-08 15:49:50 GMT 58.892715 17.375336 13,525 236 158 64
2019-12-08 15:49:46 GMT 58.894913 17.381470 13,525 236 158 192
2019-12-08 15:49:43 GMT 58.896011 17.384491 13,500 235 157 192
2019-12-08 15:49:37 GMT 58.901009 17.398272 13,475 236 157 192
2019-12-08 15:49:32 GMT 58.901009 17.398272 13,475 236 157 192
2019-12-08 15:49:28 GMT 58.902283 17.401703 13,475 236 157 320
2019-12-08 15:49:22 GMT 58.904617 17.408203 13,425 236 157 256
2019-12-08 15:49:17 GMT 58.906689 17.413898 13,425 236 157 320
2019-12-08 15:49:11 GMT 58.908829 17.420013 13,400 236 157 384
2019-12-08 15:49:07 GMT 58.910599 17.424885 13,375 236 157 320
2019-12-08 15:49:02 GMT 58.912930 17.431326 13,350 236 157 256
2019-12-08 15:48:58 GMT 58.914974 17.436913 13,325 236 157 448
2019-12-08 15:48:51 GMT 58.917618 17.444275 13,250 236 158 576
2019-12-08 15:48:47 GMT 58.919167 17.448467 13,225 236 159 512
2019-12-08 15:48:41 GMT 58.921600 17.455353 13,150 236 160 768
2019-12-08 15:48:35 GMT 58.924240 17.462580 13,000 235 163 704
2019-12-08 15:48:31 GMT 58.925915 17.467220 13,025 236 163 512
2019-12-08 15:48:26 GMT 58.928055 17.473206 13,000 235 164 704
2019-12-08 15:48:20 GMT 58.930523 17.479912 12,950 235 165 448
2019-12-08 15:48:16 GMT 58.932678 17.485931 12,900 236 165 512
2019-12-08 15:48:11 GMT 58.934921 17.492157 12,850 236 165 448
2019-12-08 15:48:06 GMT 58.936668 17.497149 12,825 235 166 640
2019-12-08 15:48:00 GMT 58.939556 17.505009 12,775 236 166 256
2019-12-08 15:47:56 GMT 58.940998 17.509083 12,775 236 166 256
2019-12-08 15:47:49 GMT 58.943977 17.517321 12,700 236 165 384
2019-12-08 15:47:44 GMT 58.946640 17.524658 12,675 236 164 320
2019-12-08 15:47:39 GMT 58.948334 17.529327 12,650 236 164 448
2019-12-08 15:47:36 GMT 58.950302 17.534729 12,625 236 164 512
2019-12-08 15:47:30 GMT 58.952728 17.541504 12,575 235 165 704
2019-12-08 15:47:26 GMT 58.954605 17.546722 12,525 236 166 640
2019-12-08 15:47:19 GMT 58.957291 17.554163 12,475 235 167 640
2019-12-08 15:47:15 GMT 58.962021 17.567413 12,350 236 168 512
2019-12-08 15:47:08 GMT 58.962021 17.567413 12,350 236 168 448
2019-12-08 15:47:05 GMT 58.963852 17.572540 12,325 236 168 320
2019-12-08 15:47:02 GMT 58.964973 17.575663 12,325 236 168 256
2019-12-08 15:46:59 GMT 58.966232 17.579132 12,300 236 168 256
2019-12-08 15:46:56 GMT 58.967579 17.582954 12,225 235 168 448
2019-12-08 15:46:48 GMT 58.973053 17.598083 12,200 236 168 320
2019-12-08 15:46:44 GMT 58.973053 17.598083 12,200 236 168 448
2019-12-08 15:46:39 GMT 58.975494 17.604927 12,150 236 168 704
2019-12-08 15:46:34 GMT 58.977917 17.611559 12,100 236 168 704
2019-12-08 15:46:28 GMT 58.979916 17.617241 12,050 236 168 512
2019-12-08 15:46:23 GMT 58.982162 17.623535 12,000 236 168 448
2019-12-08 15:46:18 GMT 58.984268 17.629486 11,950 236 168 448
2019-12-08 15:46:15 GMT 58.985596 17.633057 11,950 235 167 448
2019-12-08 15:46:07 GMT 58.988983 17.642487 11,875 236 168 768
2019-12-08 15:46:03 GMT 58.990768 17.647430 11,825 236 168 640
2019-12-08 15:45:58 GMT 58.993511 17.655125 11,750 236 169 512
2019-12-08 15:45:55 GMT 58.994659 17.658325 11,725 235 168 512
2019-12-08 15:45:48 GMT 58.997955 17.667389 11,675 236 168 448
2019-12-08 15:45:45 GMT 58.999054 17.670593 11,675 235 167 512
2019-12-08 15:45:38 GMT 59.002167 17.679291 11,600 236 166 640
2019-12-08 15:45:35 GMT 59.003517 17.683064 11,550 236 166 704
2019-12-08 15:45:31 GMT 59.005009 17.687231 11,525 236 166 768
2019-12-08 15:45:27 GMT 59.006962 17.692818 11,450 236 167 768
2019-12-08 15:45:22 GMT 59.009033 17.698517 11,425 236 168 704
2019-12-08 15:45:17 GMT 59.013382 17.710785 11,325 236 167 512
2019-12-08 15:45:12 GMT 59.013382 17.710785 11,300 236 166 512
2019-12-08 15:45:06 GMT 59.016129 17.718384 11,250 236 166 512
2019-12-08 15:45:03 GMT 59.017391 17.721989 11,225 236 166 576
2019-12-08 15:44:58 GMT 59.019627 17.728239 11,125 236 165 640
2019-12-08 15:44:54 GMT 59.021442 17.733355 11,150 236 165 640
2019-12-08 15:44:51 GMT 59.022858 17.737335 11,100 236 165 704
2019-12-08 15:44:48 GMT 59.024414 17.741638 11,075 236 165 768
2019-12-08 15:44:44 GMT 59.025787 17.745483 11,000 236 165 640
2019-12-08 15:44:41 GMT 59.026978 17.748779 11,000 236 165 640
2019-12-08 15:44:37 GMT 59.030136 17.757751 10,925 236 165 768
2019-12-08 15:44:34 GMT 59.030136 17.757751 10,925 236 165 768
2019-12-08 15:44:31 GMT 59.031509 17.761505 10,875 236 165 704
2019-12-08 15:44:25 GMT 59.034103 17.768681 10,800 236 164 512
2019-12-08 15:44:22 GMT 59.035217 17.771851 10,775 236 163 448
2019-12-08 15:44:17 GMT 59.037548 17.778437 10,725 236 164 640
2019-12-08 15:44:12 GMT 59.039688 17.784307 10,575 236 163 448
2019-12-08 15:44:06 GMT 59.042038 17.791077 10,625 236 163 640
2019-12-08 15:44:03 GMT 59.043365 17.794739 10,625 236 163 576
2019-12-08 15:44:00 GMT 59.044556 17.798035 10,575 236 162 640
2019-12-08 15:43:57 GMT 59.046341 17.803162 10,550 236 161 576
2019-12-08 15:43:53 GMT 59.047649 17.806753 10,525 236 161 512
2019-12-08 15:43:50 GMT 59.048996 17.810486 10,500 236 161 512
2019-12-08 15:43:47 GMT 59.050278 17.814056 10,450 236 160 768
2019-12-08 15:43:44 GMT 59.053562 17.823328 10,375 236 159 576
2019-12-08 15:43:35 GMT 59.055054 17.827591 10,325 236 159 576
2019-12-08 15:43:32 GMT 59.056683 17.832136 10,300 236 158 576
2019-12-08 15:43:25 GMT 59.059475 17.840092 10,200 236 158 640
2019-12-08 15:43:22 GMT 59.061661 17.846249 10,150 236 157 704
2019-12-08 15:43:16 GMT 59.063004 17.850037 10,125 236 157 768
2019-12-08 15:43:13 GMT 59.064651 17.854614 10,075 236 158 832
2019-12-08 15:43:10 GMT 59.065571 17.857328 10,050 236 158 768
2019-12-08 15:43:06 GMT 59.068497 17.865509 9,950 236 158 832
2019-12-08 15:43:03 GMT 59.069717 17.868979 9,950 236 158 832
2019-12-08 15:43:00 GMT 59.069717 17.868979 9,900 236 158 832
2019-12-08 15:42:56 GMT 59.072983 17.878143 9,800 236 158 832
2019-12-08 15:42:52 GMT 59.074230 17.881670 9,750 236 158 832
2019-12-08 15:42:46 GMT 59.075535 17.885269 9,625 236 157 960
2019-12-08 15:42:43 GMT 59.077118 17.889721 9,650 236 158 1024
2019-12-08 15:42:39 GMT 59.078373 17.893318 9,600 236 158 960
2019-12-08 15:42:36 GMT 59.079666 17.896912 9,525 236 158 896
2019-12-08 15:42:32 GMT 59.081261 17.901464 9,500 236 158 832
2019-12-08 15:42:29 GMT 59.082458 17.904785 9,450 236 158 832
2019-12-08 15:42:22 GMT 59.086800 17.917091 9,325 236 157 960
2019-12-08 15:42:15 GMT 59.088196 17.921068 9,125 236 160 1408
2019-12-08 15:42:09 GMT 59.090927 17.928680 9,100 236 160 1344
2019-12-08 15:42:06 GMT 59.092247 17.932339 9,050 236 161 1024
2019-12-08 15:42:02 GMT 59.093876 17.936979 9,000 236 162 576
2019-12-08 15:41:57 GMT 59.096008 17.943054 8,950 236 160 768
2019-12-08 15:41:52 GMT 59.098160 17.949102 8,875 236 159 1152
2019-12-08 15:41:45 GMT 59.101273 17.957977 8,725 236 160 1280
2019-12-08 15:41:42 GMT 59.102394 17.961130 8,650 236 161 1344
2019-12-08 15:41:38 GMT 59.103882 17.965302 8,575 236 162 1152
2019-12-08 15:41:35 GMT 59.105530 17.969879 8,375 236 163 1088
2019-12-08 15:41:31 GMT 59.106995 17.974091 8,450 236 163 1088
2019-12-08 15:41:27 GMT 59.108307 17.977705 8,400 236 163 1024
2019-12-08 15:41:23 GMT 59.111343 17.986359 8,275 236 162 960
2019-12-08 15:41:17 GMT 59.112869 17.990774 8,225 236 162 960
2019-12-08 15:41:14 GMT 59.114079 17.994089 8,200 236 162 1024
2019-12-08 15:41:11 GMT 59.115757 17.998920 8,100 236 161 1280
2019-12-08 15:41:06 GMT 59.117340 18.003372 8,000 236 162 1344
2019-12-08 15:41:03 GMT 59.118969 18.008013 7,925 236 163 1280
2019-12-08 15:41:00 GMT 59.119995 18.010986 7,875 236 164 1216
2019-12-08 15:40:57 GMT 59.121323 18.014740 7,800 236 164 1216
2019-12-08 15:40:54 GMT 59.122368 18.017673 7,750 236 165 1280
2019-12-08 15:40:51 GMT 59.123997 18.022314 7,650 236 165 1280
2019-12-08 15:40:48 GMT 59.125484 18.026575 7,600 236 165 1280
2019-12-08 15:40:44 GMT 59.126816 18.030304 7,500 236 165 1216
2019-12-08 15:40:41 GMT 59.128326 18.034698 7,500 236 165 1216
2019-12-08 15:40:38 GMT 59.130341 18.040466 7,400 236 165 960
2019-12-08 15:40:33 GMT 59.131760 18.044495 7,350 236 165 960
2019-12-08 15:40:29 GMT 59.133259 18.048738 7,300 236 164 960
2019-12-08 15:40:26 GMT 59.135075 18.053947 7,225 236 163 1024
2019-12-08 15:40:22 GMT 59.136192 18.057167 7,175 236 163 1088
2019-12-08 15:40:19 GMT 59.137634 18.061335 7,125 236 162 1024
2019-12-08 15:40:16 GMT 59.138847 18.064745 7,075 236 162 1024
2019-12-08 15:40:13 GMT 59.140011 18.067965 7,025 236 162 960
2019-12-08 15:40:10 GMT 59.141418 18.071960 6,975 235 161 896
2019-12-08 15:40:07 GMT 59.143204 18.076813 6,900 235 160 960
2019-12-08 15:40:03 GMT 59.144897 18.081482 6,825 235 160 1344
2019-12-08 15:39:58 GMT 59.146526 18.085581 6,750 231 161 1600
2019-12-08 15:39:55 GMT 59.148575 18.089651 6,550 214 170 1472
2019-12-08 15:39:51 GMT 59.151810 18.093842 6,500 207 173 1280
2019-12-08 15:39:48 GMT 59.152580 18.094578 6,500 204 175 1216
2019-12-08 15:39:44 GMT 59.160770 18.099880 6,325 197 178 1344
2019-12-08 15:39:39 GMT 59.160770 18.099880 6,250 197 178 1344
2019-12-08 15:39:36 GMT 59.164028 18.101774 6,175 197 178 1280
2019-12-08 15:39:32 GMT 59.165611 18.102627 6,125 197 178 1152
2019-12-08 15:39:28 GMT 59.168732 18.104523 6,050 198 177 1024
2019-12-08 15:39:24 GMT 59.174133 18.107742 5,925 198 175 1088
2019-12-08 15:39:18 GMT 59.176483 18.109222 5,900 199 175 1152
2019-12-08 15:39:15 GMT 59.178772 18.110687 5,800 198 176 1536
2019-12-08 15:39:11 GMT 59.181335 18.112152 5,675 185 184 960
2019-12-08 15:39:08 GMT 59.184677 18.112793 5,650 179 188 832
2019-12-08 15:39:05 GMT 59.187260 18.112476 5,600 170 192 832
2019-12-08 15:39:01 GMT 59.191261 18.110771 5,525 166 194 960
2019-12-08 15:38:58 GMT 59.193871 18.109447 5,475 165 194 1024
2019-12-08 15:38:53 GMT 59.197632 18.107574 5,450 165 194 1088
2019-12-08 15:38:50 GMT 59.202484 18.105089 5,300 165 194 1280
2019-12-08 15:38:43 GMT 59.206238 18.103271 5,200 165 194 1344
2019-12-08 15:38:40 GMT 59.209534 18.101624 5,125 165 195 1280
2019-12-08 15:38:37 GMT 59.211327 18.100733 5,075 165 195 1152
2019-12-08 15:38:32 GMT 59.215332 18.098743 5,000 175 189 1280
2019-12-08 15:38:29 GMT 59.220428 18.096497 4,875 169 192 1280
2019-12-08 15:38:22 GMT 59.224083 18.095335 4,800 173 190 1280
2019-12-08 15:38:17 GMT 59.229584 18.094391 4,675 175 188 1344
2019-12-08 15:38:12 GMT 59.236420 18.093250 4,550 174 189 960
2019-12-08 15:38:09 GMT 59.236420 18.093250 4,525 174 189 832
2019-12-08 15:38:06 GMT 59.238190 18.093018 4,450 174 188 448
2019-12-08 15:38:02 GMT 59.241680 18.092400 4,300 174 179 832
2019-12-08 15:37:58 GMT 59.245079 18.091831 4,425 175 183 896
2019-12-08 15:37:55 GMT 59.248058 18.091263 4,375 174 180 896
2019-12-08 15:37:52 GMT 59.250092 18.090912 4,325 174 179 832
2019-12-08 15:37:49 GMT 59.253319 18.090315 4,300 173 178 384
2019-12-08 15:37:46 GMT 59.255402 18.089813 4,275 173 176 448
2019-12-08 15:37:42 GMT 59.258484 18.089178 4,250 173 173 896
2019-12-08 15:37:38 GMT 59.261417 18.088421 4,175 173 171 1344
2019-12-08 15:37:35 GMT 59.263596 18.087982 4,125 173 171 1536
2019-12-08 15:37:32 GMT 59.269753 18.086716 2,875 128 189 448
2019-12-08 15:37:23 GMT 59.273708 18.086336 3,875 177 169 1408
2019-12-08 15:37:19 GMT 59.277145 18.086060 3,725 176 168 1024
2019-12-08 15:37:14 GMT 59.280178 18.085770 3,650 175 167 896
2019-12-08 15:37:11 GMT 59.282547 18.085419 3,600 175 167 896
2019-12-08 15:37:08 GMT 59.284927 18.085052 3,550 174 165 576
2019-12-08 15:37:05 GMT 59.287216 18.084595 3,525 173 164 512
2019-12-08 15:37:02 GMT 59.289963 18.083954 3,475 170 165 640
2019-12-08 15:36:57 GMT 59.295044 18.081757 3,350 162 167 704
2019-12-08 15:36:54 GMT 59.297401 18.080276 3,350 162 167 704
2019-12-08 15:36:51 GMT 59.297401 18.080276 3,350 159 169 384
2019-12-08 15:36:47 GMT 59.300522 18.077530 3,325 155 171 320
2019-12-08 15:36:44 GMT 59.302917 18.074799 3,275 147 174 960
2019-12-08 15:36:41 GMT 59.304611 18.072601 3,200 143 177 1664
2019-12-08 15:36:37 GMT 59.308960 18.065002 2,975 131 190 896
2019-12-08 15:36:34 GMT 59.310947 18.060766 2,975 131 190 896
2019-12-08 15:36:31 GMT 59.310947 18.060766 2,875 128 189 448
2019-12-08 15:36:27 GMT 59.313171 18.055206 2,925 125 189 256
2019-12-08 15:36:21 GMT 59.315964 18.047333 2,875 124 185 768
2019-12-08 15:36:17 GMT 59.318298 18.040741 2,825 125 180 256
2019-12-08 15:36:13 GMT 59.320999 18.033417 2,800 125 174 384
2019-12-08 15:36:10 GMT 59.320999 18.033417 2,800 124 163 704
2019-12-08 15:36:07 GMT 59.322922 18.028198 2,775 125 167 320
2019-12-08 15:36:04 GMT 59.324032 18.025061 2,675 124 160 1024
2019-12-08 15:36:01 GMT 59.325302 18.021515 2,675 124 160 1024
2019-12-08 15:35:57 GMT 59.327568 18.014927 2,625 124 160 1024
2019-12-08 15:35:51 GMT 59.331104 18.004887 2,500 124 153 768
2019-12-08 15:35:40 GMT 59.333668 17.997784 2,425 124 147 704
2019-12-08 15:35:36 GMT 59.335201 17.993523 2,300 126 138 1344
2019-12-08 15:35:31 GMT 59.337387 17.987823 2,250 126 138 1280
2019-12-08 15:35:28 GMT 59.338322 17.985283 2,225 126 136 1344
2019-12-08 15:35:20 GMT 59.341461 17.976929 2,025 126 130 1536
2019-12-08 15:35:17 GMT 59.342743 17.973537 1,925 126 129 1984
2019-12-08 15:35:10 GMT 59.345074 17.967382 1,650 125 133 1984
2019-12-08 15:35:06 GMT 59.346497 17.963562 1,575 126 133 1728
2019-12-08 15:35:00 GMT 59.349060 17.956604 1,350 125 133 1856
2019-12-08 15:34:57 GMT 59.349541 17.955164 1,325 124 133 1472
2019-12-08 15:34:40 GMT 59.355221 17.939253 1,100 125 106 -128
2019-12-08 15:33:15 GMT 59.359737 17.929522 0 253 10
2019-12-08 15:33:10 GMT 59.359772 17.929825 0 255 10
2019-12-08 15:33:01 GMT 59.359875 17.930681 0 258 11
2019-12-08 15:32:51 GMT 59.359863 17.931610 0 298 11
2019-12-08 15:32:38 GMT 59.359486 17.932709 0 303 12

Making use of Plane Finder data

You are free to use the raw flight data, aircraft information and images provided in this report for your own purposes provided the data is correctly attributed to Plane Finder. We ask that you please credit Plane Finder and link to planefinder.net in close proximity to the content.

Optionally one of the following logos (no smaller then 150x24px) can be used and must link to planefinder.net

Embedding the Plane Finder map

You are welcome to embed the Plane Finder playback map on your website to offer visitors a more interactive experience. We suggest using the following HTML code:

<iframe src="//planefinder.net/data/report/TF336-SE-MKB-7700-squawk-2019-12-08/map" width="800" height="600" seamless="seamless"></iframe>

Where our data comes from

Plane Finder has a global network of data feeds and antenna radars that receive data broadcast directly from aircraft. The primary technologies used are ADS-B and MLAT. We also show feeds from the FAA and a FLARM glider feed.

Click here to find out more about the Plane Finder network.

How we collect our data